createdAt,value
2019-02-24T00:00:21.312Z,3.30
2019-02-24T00:02:52.512Z,3.30
2019-02-24T00:05:22.198Z,3.30
2019-02-24T00:07:51.780Z,3.20
2019-02-24T00:10:21.364Z,3.30
2019-02-24T00:12:50.962Z,3.20
2019-02-24T00:15:20.598Z,3.20
2019-02-24T00:17:50.205Z,3.20
2019-02-24T00:20:19.874Z,3.20
2019-02-24T00:22:49.483Z,3.20
2019-02-24T00:25:19.176Z,3.20
2019-02-24T00:27:48.779Z,3.20
2019-02-24T00:30:18.451Z,3.20
2019-02-24T00:32:48.098Z,3.20
2019-02-24T00:35:17.753Z,3.20
2019-02-24T00:37:47.340Z,3.20
2019-02-24T00:40:16.798Z,3.20
2019-02-24T00:42:46.486Z,3.20
2019-02-24T00:45:16.064Z,3.20
2019-02-24T00:47:45.646Z,3.20
2019-02-24T00:50:15.181Z,3.20
2019-02-24T00:52:44.775Z,3.20
2019-02-24T00:55:14.428Z,3.20
2019-02-24T00:57:44.112Z,3.20
2019-02-24T01:00:13.713Z,3.20
2019-02-24T01:02:44.382Z,3.20
2019-02-24T01:05:14.047Z,3.20
2019-02-24T01:07:43.824Z,3.20
2019-02-24T01:10:13.496Z,3.20
2019-02-24T01:12:43.084Z,3.20
2019-02-24T01:15:12.698Z,3.20
2019-02-24T01:17:42.350Z,3.10
2019-02-24T01:20:11.937Z,3.10
2019-02-24T01:22:41.525Z,3.10
2019-02-24T01:25:11.110Z,3.10
2019-02-24T01:27:40.710Z,3.10
2019-02-24T01:30:11.191Z,3.10
2019-02-24T01:32:40.795Z,3.20
2019-02-24T01:35:10.398Z,3.20
2019-02-24T01:37:39.979Z,3.20
2019-02-24T01:40:09.686Z,3.20
2019-02-24T01:42:39.341Z,3.20
2019-02-24T01:45:09.089Z,3.20
2019-02-24T01:47:38.587Z,3.20
2019-02-24T01:50:09.091Z,3.20
2019-02-24T01:52:38.736Z,3.20
2019-02-24T01:55:08.318Z,3.30
2019-02-24T01:57:37.858Z,3.20
2019-02-24T02:00:10.131Z,3.30
2019-02-24T02:02:39.842Z,3.30
2019-02-24T02:05:09.496Z,3.30
2019-02-24T02:07:39.074Z,3.30
2019-02-24T02:10:08.754Z,3.30
2019-02-24T02:12:38.394Z,3.30
2019-02-24T02:15:08.397Z,3.30
2019-02-24T02:17:38.080Z,3.30
2019-02-24T02:20:09.349Z,3.30
2019-02-24T02:22:39.019Z,3.30
2019-02-24T02:25:09.779Z,3.30
2019-02-24T02:27:39.360Z,3.40
2019-02-24T02:30:10.676Z,3.40
2019-02-24T02:32:40.197Z,3.40
2019-02-24T02:35:09.904Z,3.40
2019-02-24T02:37:39.538Z,3.40
2019-02-24T02:40:09.269Z,3.50
2019-02-24T02:42:38.944Z,3.50
2019-02-24T02:45:09.026Z,3.50
2019-02-24T02:47:38.633Z,3.50
2019-02-24T02:50:08.228Z,3.50
2019-02-24T02:52:37.817Z,3.60
2019-02-24T02:55:07.412Z,3.60
2019-02-24T02:57:37.077Z,3.60
2019-02-24T03:00:28.523Z,3.60
2019-02-24T03:02:58.230Z,3.60
2019-02-24T03:05:27.875Z,3.70
2019-02-24T03:07:59.189Z,3.70
2019-02-24T03:10:28.912Z,3.70
2019-02-24T03:12:58.585Z,3.70
2019-02-24T03:15:28.245Z,3.70
2019-02-24T03:17:57.873Z,3.80
2019-02-24T03:20:27.430Z,3.80
2019-02-24T03:22:57.019Z,3.80
2019-02-24T03:25:27.577Z,3.80
2019-02-24T03:27:58.294Z,3.80
2019-02-24T03:30:28.818Z,3.80
2019-02-24T03:32:58.465Z,3.80
2019-02-24T03:35:28.103Z,3.80
2019-02-24T03:37:57.775Z,3.80
2019-02-24T03:40:27.429Z,3.80
2019-02-24T03:42:57.018Z,3.80
2019-02-24T03:45:26.624Z,3.80
2019-02-24T03:47:56.288Z,3.80
2019-02-24T03:50:25.974Z,3.80
2019-02-24T03:52:55.561Z,3.80
2019-02-24T03:55:25.203Z,3.80
2019-02-24T03:57:54.971Z,3.80
2019-02-24T04:00:24.709Z,3.80
2019-02-24T04:02:54.368Z,3.80
2019-02-24T04:05:24.069Z,3.80
2019-02-24T04:07:53.687Z,3.80
2019-02-24T04:10:23.202Z,3.80
2019-02-24T04:12:52.819Z,3.80
2019-02-24T04:15:22.559Z,3.80
2019-02-24T04:17:52.134Z,3.90
2019-02-24T04:20:21.736Z,3.90
2019-02-24T04:22:51.353Z,3.90
2019-02-24T04:25:20.956Z,3.90
2019-02-24T04:27:50.526Z,3.90
2019-02-24T04:30:20.116Z,3.80
2019-02-24T04:32:49.770Z,3.80
2019-02-24T04:35:19.462Z,3.80
2019-02-24T04:37:48.998Z,3.80
2019-02-24T04:40:18.591Z,3.80
2019-02-24T04:42:48.196Z,3.80
2019-02-24T04:45:17.804Z,3.80
2019-02-24T04:47:47.416Z,3.90
2019-02-24T04:50:19.471Z,3.90
2019-02-24T04:52:49.010Z,3.90
2019-02-24T04:55:18.595Z,3.90
2019-02-24T04:57:48.194Z,3.90
2019-02-24T05:00:17.789Z,3.90
2019-02-24T05:02:47.290Z,4.00
2019-02-24T05:05:16.826Z,4.00
2019-02-24T05:07:47.377Z,4.00
2019-02-24T05:10:16.918Z,3.90
2019-02-24T05:12:46.428Z,3.90
2019-02-24T05:15:16.032Z,3.90
2019-02-24T05:17:45.738Z,3.90
2019-02-24T05:20:15.297Z,3.90
2019-02-24T05:22:46.076Z,3.90
2019-02-24T05:25:15.664Z,3.90
2019-02-24T05:27:45.253Z,3.90
2019-02-24T05:30:14.913Z,3.90
2019-02-24T05:32:44.574Z,3.90
2019-02-24T05:35:14.278Z,4.00
2019-02-24T05:37:43.859Z,4.00
2019-02-24T05:40:13.496Z,3.90
2019-02-24T05:42:43.038Z,4.00
2019-02-24T05:45:12.551Z,4.00
2019-02-24T05:47:42.150Z,4.00
2019-02-24T05:50:11.741Z,4.10
2019-02-24T05:52:41.311Z,4.10
2019-02-24T05:55:10.888Z,4.10
2019-02-24T05:57:40.484Z,4.20
2019-02-24T06:00:10.070Z,4.30
2019-02-24T06:02:39.592Z,4.30
2019-02-24T06:05:09.272Z,4.30
2019-02-24T06:07:39.203Z,4.30
2019-02-24T06:10:08.767Z,4.30
2019-02-24T06:12:38.354Z,4.40
2019-02-24T06:15:08.140Z,4.30
2019-02-24T06:17:37.716Z,4.40
2019-02-24T06:20:07.300Z,4.40
2019-02-24T06:22:37.992Z,4.40
2019-02-24T06:25:07.585Z,4.40
2019-02-24T06:27:37.240Z,4.40
2019-02-24T06:30:27.526Z,4.40
2019-02-24T06:32:57.190Z,4.50
2019-02-24T06:35:26.770Z,4.50
2019-02-24T06:37:56.435Z,4.50
2019-02-24T06:40:26.140Z,4.60
2019-02-24T06:42:55.807Z,4.70
2019-02-24T06:45:44.672Z,4.80
2019-02-24T06:48:14.199Z,4.90
2019-02-24T06:50:48.536Z,5.00
2019-02-24T06:53:18.196Z,5.10
2019-02-24T06:55:47.806Z,5.10
2019-02-24T06:58:18.605Z,5.20
2019-02-24T07:00:48.159Z,5.30
2019-02-24T07:03:17.859Z,5.30
2019-02-24T07:05:47.517Z,5.40
2019-02-24T07:08:17.055Z,5.50
2019-02-24T07:10:46.652Z,5.50
2019-02-24T07:13:16.323Z,5.60
2019-02-24T07:15:45.910Z,5.70
2019-02-24T07:18:15.552Z,5.70
2019-02-24T07:20:45.236Z,5.80
2019-02-24T07:23:14.920Z,5.80
2019-02-24T07:25:44.575Z,5.90
2019-02-24T07:28:14.113Z,6.00
2019-02-24T07:30:43.750Z,6.10
2019-02-24T07:33:13.397Z,6.10
2019-02-24T07:35:42.985Z,6.20
2019-02-24T07:38:12.652Z,6.30
2019-02-24T07:40:42.258Z,6.30
2019-02-24T07:43:11.841Z,6.40
2019-02-24T07:45:41.503Z,6.40
2019-02-24T07:48:11.176Z,6.50
2019-02-24T07:50:40.840Z,6.60
2019-02-24T07:53:10.447Z,6.70
2019-02-24T07:55:40.042Z,6.70
2019-02-24T07:58:09.631Z,6.80
2019-02-24T08:00:39.209Z,6.90
2019-02-24T08:03:08.831Z,7.00
2019-02-24T08:05:38.411Z,7.00
2019-02-24T08:08:16.052Z,7.10
2019-02-24T08:10:39.192Z,7.20
2019-02-24T08:13:09.021Z,7.30
2019-02-24T08:15:38.687Z,7.40
2019-02-24T08:18:08.435Z,7.40
2019-02-24T08:20:38.083Z,7.50
2019-02-24T08:23:07.696Z,7.60
2019-02-24T08:25:37.352Z,7.70
2019-02-24T08:28:07.034Z,7.80
2019-02-24T08:30:41.455Z,7.90
2019-02-24T08:33:08.121Z,8.00
2019-02-24T08:35:37.729Z,8.10
2019-02-24T08:38:07.391Z,8.20
2019-02-24T08:40:36.956Z,8.40
2019-02-24T08:43:06.612Z,8.50
2019-02-24T08:45:36.302Z,8.60
2019-02-24T08:48:07.337Z,8.70
2019-02-24T08:50:36.999Z,8.80
2019-02-24T08:53:06.714Z,8.90
2019-02-24T08:55:36.490Z,9.00
2019-02-24T08:58:06.192Z,9.10
2019-02-24T09:00:35.870Z,9.10
2019-02-24T09:03:05.717Z,9.20
2019-02-24T09:05:35.353Z,9.30
2019-02-24T09:08:05.117Z,9.40
2019-02-24T09:10:34.855Z,9.50
2019-02-24T09:13:05.556Z,9.60
2019-02-24T09:15:36.323Z,9.60
2019-02-24T09:18:05.989Z,9.70
2019-02-24T09:20:35.661Z,9.70
2019-02-24T09:23:05.339Z,9.80
2019-02-24T09:25:35.071Z,9.80
2019-02-24T09:28:04.738Z,9.90
2019-02-24T09:30:34.382Z,9.90
2019-02-24T09:33:04.137Z,10.00
2019-02-24T09:35:33.804Z,10.00
2019-02-24T09:38:03.750Z,10.10
2019-02-24T09:40:33.492Z,10.10
2019-02-24T09:43:03.250Z,10.20
2019-02-24T09:45:32.972Z,10.20
2019-02-24T09:48:02.590Z,10.30
2019-02-24T09:50:32.186Z,10.30
2019-02-24T09:53:02.015Z,10.40
2019-02-24T09:55:31.668Z,10.50
2019-02-24T09:58:01.345Z,10.60
2019-02-24T10:00:31.092Z,10.70
2019-02-24T10:03:00.760Z,10.80
2019-02-24T10:05:30.380Z,10.80
2019-02-24T10:08:00.061Z,10.90
2019-02-24T10:10:29.769Z,11.00
2019-02-24T10:12:59.443Z,11.10
2019-02-24T10:15:28.986Z,11.20
2019-02-24T10:17:58.738Z,11.30
2019-02-24T10:20:28.452Z,11.30
2019-02-24T10:22:58.245Z,11.40
2019-02-24T10:25:27.869Z,11.50
2019-02-24T10:27:58.344Z,11.60
2019-02-24T10:30:28.048Z,11.70
2019-02-24T10:32:57.746Z,11.80
2019-02-24T10:35:27.356Z,11.90
2019-02-24T10:37:57.064Z,11.90
2019-02-24T10:40:26.833Z,12.00
2019-02-24T10:42:56.493Z,12.10
2019-02-24T10:45:26.359Z,12.20
2019-02-24T10:47:56.126Z,12.20
2019-02-24T10:50:25.839Z,12.30
2019-02-24T10:52:55.609Z,12.30
2019-02-24T10:55:25.314Z,12.40
2019-02-24T10:57:55.003Z,12.40
2019-02-24T11:00:24.738Z,12.40
2019-02-24T11:02:54.446Z,12.50
2019-02-24T11:05:24.105Z,12.50
2019-02-24T11:07:53.780Z,12.50
2019-02-24T11:10:23.860Z,12.50
2019-02-24T11:12:53.717Z,12.50
2019-02-24T11:15:24.040Z,12.60
2019-02-24T11:17:54.430Z,12.50
2019-02-24T11:20:24.816Z,12.50
2019-02-24T11:22:55.103Z,12.50
2019-02-24T11:25:25.454Z,12.60
2019-02-24T11:27:56.252Z,12.50
2019-02-24T11:30:25.936Z,12.50
2019-02-24T11:32:55.676Z,12.40
2019-02-24T11:35:25.278Z,12.30
2019-02-24T11:37:55.037Z,12.30
2019-02-24T11:40:24.629Z,12.40
2019-02-24T11:42:54.313Z,12.40
2019-02-24T11:45:24.052Z,12.40
2019-02-24T11:47:57.540Z,12.40
2019-02-24T11:50:27.285Z,12.40
2019-02-24T11:52:56.979Z,12.40
2019-02-24T11:55:26.672Z,12.40
2019-02-24T11:57:56.404Z,12.40
2019-02-24T12:00:26.012Z,12.50
2019-02-24T12:02:55.787Z,12.60
2019-02-24T12:05:25.535Z,12.60
2019-02-24T12:07:55.269Z,12.70
2019-02-24T12:10:24.852Z,12.70
2019-02-24T12:12:54.609Z,12.80
2019-02-24T12:15:24.302Z,12.80
2019-02-24T12:17:53.962Z,12.70
2019-02-24T12:20:24.638Z,12.80
2019-02-24T12:22:55.996Z,12.80
2019-02-24T12:25:26.721Z,12.80
2019-02-24T12:27:56.400Z,12.80
2019-02-24T12:30:26.145Z,12.80
2019-02-24T12:32:55.886Z,12.80
2019-02-24T12:35:25.623Z,12.70
2019-02-24T12:37:55.317Z,12.80
2019-02-24T12:40:24.972Z,12.80
2019-02-24T12:42:54.695Z,12.80
2019-02-24T12:45:24.314Z,12.80
2019-02-24T12:47:54.040Z,12.70
2019-02-24T12:50:23.705Z,12.70
2019-02-24T12:52:53.348Z,12.70
2019-02-24T12:55:23.050Z,12.50
2019-02-24T12:57:52.638Z,12.40
2019-02-24T13:00:24.266Z,12.40
2019-02-24T13:02:53.859Z,12.60
2019-02-24T13:05:23.698Z,12.60
2019-02-24T13:07:53.388Z,12.70
2019-02-24T13:10:22.982Z,12.80
2019-02-24T13:12:52.700Z,12.70
2019-02-24T13:15:22.366Z,12.70
2019-02-24T13:17:52.013Z,12.50
2019-02-24T13:20:21.715Z,12.50
2019-02-24T13:22:51.388Z,12.50
2019-02-24T13:25:21.119Z,12.50
2019-02-24T13:27:50.836Z,12.60
2019-02-24T13:30:20.627Z,12.60
2019-02-24T13:32:50.358Z,12.60
2019-02-24T13:35:20.033Z,12.50
2019-02-24T13:37:49.751Z,12.40
2019-02-24T13:40:19.397Z,12.10
2019-02-24T13:42:49.075Z,12.00
2019-02-24T13:45:20.740Z,11.90
2019-02-24T13:47:50.422Z,11.80
2019-02-24T13:50:20.022Z,11.60
2019-02-24T13:52:49.631Z,11.50
2019-02-24T13:55:19.382Z,11.50
2019-02-24T13:57:52.396Z,11.20
2019-02-24T14:00:22.861Z,11.20
2019-02-24T14:02:54.040Z,11.20
2019-02-24T14:05:27.295Z,11.20
2019-02-24T14:07:57.041Z,11.30
2019-02-24T14:10:26.941Z,11.30
2019-02-24T14:12:56.562Z,11.30
2019-02-24T14:15:26.276Z,11.30
2019-02-24T14:17:56.033Z,11.20
2019-02-24T14:20:25.866Z,11.20
2019-02-24T14:22:56.209Z,11.30
2019-02-24T14:25:25.976Z,11.20
2019-02-24T14:27:55.873Z,11.00
2019-02-24T14:30:25.932Z,11.00
2019-02-24T14:32:56.638Z,11.00
2019-02-24T14:35:27.008Z,11.00
2019-02-24T14:37:56.757Z,11.00
2019-02-24T14:40:26.475Z,11.10
2019-02-24T14:42:56.220Z,11.20
2019-02-24T14:45:25.965Z,11.20
2019-02-24T14:47:55.875Z,11.20
2019-02-24T14:50:25.565Z,11.10
2019-02-24T14:52:55.283Z,10.90
2019-02-24T14:55:24.986Z,10.90
2019-02-24T14:57:54.597Z,10.80
2019-02-24T15:00:24.785Z,10.70
2019-02-24T15:02:54.440Z,10.60
2019-02-24T15:05:24.071Z,10.30
2019-02-24T15:07:53.736Z,10.20
2019-02-24T15:10:25.688Z,10.00
2019-02-24T15:12:56.493Z,9.80
2019-02-24T15:15:37.042Z,9.60
2019-02-24T15:18:06.770Z,9.40
2019-02-24T15:20:36.443Z,9.30
2019-02-24T15:23:06.782Z,9.30
2019-02-24T15:25:36.476Z,9.20
2019-02-24T15:28:06.269Z,9.20
2019-02-24T15:30:37.337Z,9.10
2019-02-24T15:33:07.037Z,9.00
2019-02-24T15:35:37.175Z,9.00
2019-02-24T15:38:06.960Z,8.90
2019-02-24T15:40:36.635Z,8.80
2019-02-24T15:43:06.313Z,8.70
2019-02-24T15:45:48.193Z,8.70
2019-02-24T15:48:17.916Z,8.60
2019-02-24T15:50:48.193Z,8.60
2019-02-24T15:53:17.762Z,8.50
2019-02-24T15:55:47.338Z,8.50
2019-02-24T15:58:17.931Z,8.40
2019-02-24T16:00:47.717Z,8.40
2019-02-24T16:03:17.294Z,8.30
2019-02-24T16:05:46.897Z,8.20
2019-02-24T16:08:16.556Z,8.20
2019-02-24T16:10:46.156Z,8.10
2019-02-24T16:13:17.203Z,8.00
2019-02-24T16:15:46.858Z,8.00
2019-02-24T16:18:16.448Z,7.90
2019-02-24T16:20:47.152Z,7.80
2019-02-24T16:23:16.749Z,7.70
2019-02-24T16:25:47.447Z,7.70
2019-02-24T16:28:17.022Z,7.60
2019-02-24T16:30:46.631Z,7.60
2019-02-24T16:33:16.229Z,7.50
2019-02-24T16:35:45.945Z,7.40
2019-02-24T16:38:15.606Z,7.30
2019-02-24T16:40:45.269Z,7.30
2019-02-24T16:43:14.844Z,7.20
2019-02-24T16:45:44.759Z,7.20
2019-02-24T16:48:14.359Z,7.10
2019-02-24T16:50:43.943Z,7.10
2019-02-24T16:53:13.547Z,7.00
2019-02-24T16:55:43.215Z,7.00
2019-02-24T16:58:12.821Z,6.90
2019-02-24T17:00:42.677Z,6.90
2019-02-24T17:03:19.661Z,6.80
2019-02-24T17:05:43.702Z,6.70
2019-02-24T17:08:13.501Z,6.70
2019-02-24T17:10:43.105Z,6.60
2019-02-24T17:13:12.773Z,6.60
2019-02-24T17:15:42.362Z,6.60
2019-02-24T17:18:11.970Z,6.60
2019-02-24T17:20:41.625Z,6.50
2019-02-24T17:23:11.213Z,6.50
2019-02-24T17:25:42.016Z,6.50
2019-02-24T17:28:11.664Z,6.40
2019-02-24T17:30:41.361Z,6.40
2019-02-24T17:33:12.102Z,6.30
2019-02-24T17:35:41.784Z,6.20
2019-02-24T17:38:11.450Z,6.20
2019-02-24T17:40:41.046Z,6.20
2019-02-24T17:43:10.648Z,6.10
2019-02-24T17:45:40.329Z,6.10
2019-02-24T17:48:09.842Z,6.10
2019-02-24T17:50:39.510Z,6.00
2019-02-24T17:53:09.186Z,6.00
2019-02-24T17:55:38.768Z,6.00
2019-02-24T17:58:08.439Z,5.90
2019-02-24T18:00:42.694Z,5.90
2019-02-24T18:03:12.366Z,5.90
2019-02-24T18:05:41.985Z,5.90
2019-02-24T18:08:11.555Z,5.90
2019-02-24T18:10:41.174Z,5.90
2019-02-24T18:13:10.904Z,5.80
2019-02-24T18:15:40.528Z,5.80
2019-02-24T18:18:11.101Z,5.80
2019-02-24T18:20:40.828Z,5.80
2019-02-24T18:23:10.529Z,5.80
2019-02-24T18:25:40.166Z,5.80
2019-02-24T18:28:09.893Z,5.80
2019-02-24T18:30:40.008Z,5.70
2019-02-24T18:33:09.667Z,5.70
2019-02-24T18:35:39.333Z,5.70
2019-02-24T18:38:09.050Z,5.70
2019-02-24T18:40:38.720Z,5.70
2019-02-24T18:43:08.395Z,5.60
2019-02-24T18:45:38.049Z,5.60
2019-02-24T18:48:08.718Z,5.60
2019-02-24T18:50:38.334Z,5.60
2019-02-24T18:53:08.007Z,5.50
2019-02-24T18:55:37.613Z,5.50
2019-02-24T18:58:07.204Z,5.50
2019-02-24T19:00:36.868Z,5.50
2019-02-24T19:03:06.570Z,5.50
2019-02-24T19:05:36.250Z,5.40
2019-02-24T19:08:05.836Z,5.40
2019-02-24T19:10:35.547Z,5.40
2019-02-24T19:13:05.186Z,5.40
2019-02-24T19:15:34.797Z,5.30
2019-02-24T19:18:04.396Z,5.30
2019-02-24T19:20:34.009Z,5.30
2019-02-24T19:23:03.669Z,5.20
2019-02-24T19:25:33.417Z,5.20
2019-02-24T19:28:03.083Z,5.10
2019-02-24T19:30:40.425Z,5.10
2019-02-24T19:33:10.239Z,5.10
2019-02-24T19:35:39.851Z,5.10
2019-02-24T19:38:09.439Z,5.10
2019-02-24T19:40:39.040Z,5.10
2019-02-24T19:43:08.704Z,5.10
2019-02-24T19:45:38.282Z,5.10
2019-02-24T19:48:07.894Z,5.10
2019-02-24T19:50:37.564Z,5.00
2019-02-24T19:53:07.347Z,5.00
2019-02-24T19:55:36.974Z,5.00
2019-02-24T19:58:06.616Z,5.00
2019-02-24T20:00:36.207Z,4.90
2019-02-24T20:03:05.834Z,4.90
2019-02-24T20:05:35.405Z,4.90
2019-02-24T20:08:05.020Z,4.90
2019-02-24T20:10:35.837Z,4.90
2019-02-24T20:13:05.416Z,4.90
2019-02-24T20:15:36.556Z,4.90
2019-02-24T20:18:07.318Z,4.90
2019-02-24T20:20:36.956Z,4.90
2019-02-24T20:23:06.548Z,4.90
2019-02-24T20:25:36.144Z,4.90
2019-02-24T20:28:05.822Z,4.90
2019-02-24T20:30:36.558Z,4.90
2019-02-24T20:33:06.234Z,4.90
2019-02-24T20:35:35.893Z,4.90
2019-02-24T20:38:05.540Z,4.90
2019-02-24T20:40:35.208Z,4.90
2019-02-24T20:43:04.851Z,4.80
2019-02-24T20:45:34.544Z,4.80
2019-02-24T20:48:04.332Z,4.80
2019-02-24T20:50:35.145Z,4.80
2019-02-24T20:53:05.102Z,4.80
2019-02-24T20:55:34.771Z,4.80
2019-02-24T20:58:04.407Z,4.80
2019-02-24T21:00:37.146Z,4.80
2019-02-24T21:03:06.744Z,4.80
2019-02-24T21:05:36.327Z,4.80
2019-02-24T21:08:08.105Z,4.80
2019-02-24T21:10:38.184Z,4.80
2019-02-24T21:13:07.848Z,4.80
2019-02-24T21:15:37.516Z,4.80
2019-02-24T21:18:07.252Z,4.80
2019-02-24T21:20:36.856Z,4.80
2019-02-24T21:23:06.549Z,4.70
2019-02-24T21:25:36.158Z,4.70
2019-02-24T21:28:06.823Z,4.70
2019-02-24T21:30:36.399Z,4.60
2019-02-24T21:33:05.998Z,4.60
2019-02-24T21:35:35.604Z,4.50
2019-02-24T21:38:05.272Z,4.50
2019-02-24T21:40:35.004Z,4.40
2019-02-24T21:43:04.674Z,4.40
2019-02-24T21:45:34.402Z,4.40
2019-02-24T21:48:04.005Z,4.30
2019-02-24T21:50:33.680Z,4.30
2019-02-24T21:53:03.244Z,4.30
2019-02-24T21:55:32.855Z,4.30
2019-02-24T21:58:04.325Z,4.30
2019-02-24T22:00:33.671Z,4.30
2019-02-24T22:03:03.259Z,4.30
2019-02-24T22:05:32.863Z,4.30
2019-02-24T22:08:02.452Z,4.30
2019-02-24T22:10:32.051Z,4.30
2019-02-24T22:13:01.631Z,4.30
2019-02-24T22:15:31.219Z,4.20
2019-02-24T22:18:00.813Z,4.20
2019-02-24T22:20:30.484Z,4.20
2019-02-24T22:23:00.528Z,4.20
2019-02-24T22:25:30.199Z,4.20
2019-02-24T22:27:59.908Z,4.20
2019-02-24T22:30:29.484Z,4.20
2019-02-24T22:32:59.080Z,4.20
2019-02-24T22:35:28.696Z,4.20
2019-02-24T22:37:58.285Z,4.20
2019-02-24T22:40:27.954Z,4.20
2019-02-24T22:42:57.536Z,4.10
2019-02-24T22:45:27.141Z,4.10
2019-02-24T22:47:56.818Z,4.10
2019-02-24T22:50:26.396Z,4.00
2019-02-24T22:52:55.997Z,4.00
2019-02-24T22:55:25.599Z,4.00
2019-02-24T22:57:55.187Z,4.00
2019-02-24T23:00:53.515Z,3.90
2019-02-24T23:03:27.882Z,3.90
2019-02-24T23:05:57.505Z,3.90
2019-02-24T23:08:27.166Z,3.90
2019-02-24T23:10:56.860Z,3.80
2019-02-24T23:13:26.526Z,3.80
2019-02-24T23:15:56.143Z,3.80
2019-02-24T23:18:25.792Z,3.80
2019-02-24T23:20:55.384Z,3.80
2019-02-24T23:23:41.215Z,3.80
2019-02-24T23:26:10.899Z,3.80
2019-02-24T23:28:40.589Z,3.80
2019-02-24T23:31:10.355Z,3.80
2019-02-24T23:33:40.063Z,3.80
2019-02-24T23:36:09.673Z,3.80
2019-02-24T23:38:39.467Z,3.70
2019-02-24T23:41:10.201Z,3.70
2019-02-24T23:43:39.980Z,3.70
2019-02-24T23:46:09.700Z,3.70
2019-02-24T23:48:39.363Z,3.70
2019-02-24T23:51:09.038Z,3.80
2019-02-24T23:53:38.765Z,3.70
2019-02-24T23:56:08.428Z,3.80
2019-02-24T23:58:38.092Z,3.70
